Time;durP1;ratioP1;P1;durP2;ratioP2;P2;SDS_P1;SDS_P2;PMS_P1;PMS_P2;Temp;Humidity;BMP_temperature;BMP_pressure;BME280_temperature;BME280_humidity;BME280_pressure;Samples;Min_cycle;Max_cycle;Signal;HPM_P1;HPM_P2
2021/05/18 00:02:25;;;;;;;0.75;0.60;;;10.50;99.90;;;;;;5053728;28;20492;-72
2021/05/18 00:04:51;;;;;;;2.03;0.70;;;10.40;99.90;;;;;;5052725;28;20029;-71
2021/05/18 00:07:21;;;;;;;1.55;0.50;;;10.40;99.90;;;;;;5053762;28;20064;-73
2021/05/18 00:12:32;;;;;;;1.58;0.77;;;10.30;99.90;;;;;;5053910;28;20066;-72
2021/05/18 00:15:04;;;;;;;1.63;0.60;;;10.30;99.90;;;;;;5052634;28;20025;-73
2021/05/18 00:17:30;;;;;;;;;;;10.30;99.90;;;;;;5053970;28;20097;-71
2021/05/18 00:19:55;;;;;;;0.60;0.60;;;10.20;99.90;;;;;;5053562;28;20410;-73
2021/05/18 00:22:21;;;;;;;0.85;0.65;;;10.20;99.90;;;;;;5053588;28;20029;-70
2021/05/18 00:24:47;;;;;;;0.70;0.50;;;10.20;99.90;;;;;;5052931;28;20029;-72
2021/05/18 00:27:13;;;;;;;1.83;0.60;;;10.20;99.90;;;;;;5035155;28;20036;-72
2021/05/18 00:29:39;;;;;;;1.33;0.70;;;10.20;99.90;;;;;;5052823;28;20586;-72
2021/05/18 00:32:05;;;;;;;1.65;0.70;;;10.20;99.90;;;;;;5053439;28;20090;-73
2021/05/18 00:34:30;;;;;;;1.05;0.57;;;10.10;99.90;;;;;;5052651;28;20029;-73
2021/05/18 00:36:56;;;;;;;4.22;0.60;;;10.20;99.90;;;;;;5052940;28;20029;-73
2021/05/18 00:39:21;;;;;;;1.05;0.50;;;10.10;99.90;;;;;;5053301;28;20395;-72
2021/05/18 00:41:48;;;;;;;6.55;0.70;;;10.00;99.90;;;;;;5053269;28;20027;-74
2021/05/18 00:44:14;;;;;;;0.73;0.50;;;10.10;99.90;;;;;;5051968;28;20475;-71
2021/05/18 00:46:41;;;;;;;0.70;0.60;;;10.10;99.90;;;;;;5035118;28;20051;-72
2021/05/18 00:49:07;;;;;;;1.65;0.60;;;10.10;99.90;;;;;;5053289;28;20043;-72
2021/05/18 00:51:32;;;;;;;1.50;0.80;;;10.20;99.90;;;;;;5034875;28;20021;-72
2021/05/18 00:54:01;;;;;;;0.50;0.50;;;10.20;99.90;;;;;;5052291;28;20033;-71
2021/05/18 00:59:05;;;;;;;0.70;0.63;;;10.00;99.90;;;;;;5052959;28;20543;-70
2021/05/18 01:01:32;;;;;;;0.65;0.60;;;10.00;99.90;;;;;;5052434;28;20029;-72
2021/05/18 01:03:59;;;;;;;1.30;0.65;;;10.10;99.90;;;;;;5034079;28;20025;-72
2021/05/18 01:09:13;;;;;;;1.85;0.60;;;10.20;99.90;;;;;;5052502;28;20108;-72
2021/05/18 01:11:48;;;;;;;3.67;0.40;;;10.00;99.90;;;;;;5052510;28;20037;-71
2021/05/18 01:14:17;;;;;;;1.30;0.50;;;10.00;99.90;;;;;;5033782;28;20395;-73
2021/05/18 01:16:53;;;;;;;5.13;0.57;;;9.90;99.90;;;;;;5052290;28;20048;-72
2021/05/18 01:19:21;;;;;;;1.17;0.60;;;10.10;99.90;;;;;;5052546;28;20447;-72
2021/05/18 01:21:47;;;;;;;2.30;0.60;;;10.00;99.90;;;;;;5051922;28;20029;-71
2021/05/18 01:24:17;;;;;;;0.60;0.60;;;10.10;99.90;;;;;;5051392;28;20040;-70
2021/05/18 01:26:43;;;;;;;0.68;0.60;;;10.20;99.90;;;;;;5054215;28;20029;-72
2021/05/18 01:29:09;;;;;;;1.48;0.73;;;10.20;99.90;;;;;;5056808;28;20483;-72
2021/05/18 01:31:36;;;;;;;0.77;0.70;;;10.30;99.90;;;;;;5051982;28;20108;-71
2021/05/18 01:34:03;;;;;;;0.60;0.57;;;10.20;99.90;;;;;;5051457;28;20032;-72
2021/05/18 01:36:32;;;;;;;1.35;0.77;;;10.20;99.90;;;;;;5051968;28;20064;-71
2021/05/18 01:44:16;;;;;;;2.38;0.90;;;10.50;99.90;;;;;;5013455;28;20360;-71
2021/05/18 01:46:43;;;;;;;1.40;0.88;;;10.50;99.90;;;;;;5033660;28;20032;-71
2021/05/18 01:49:11;;;;;;;0.63;0.63;;;10.50;99.90;;;;;;5051936;28;20021;-72
2021/05/18 01:51:50;;;;;;;1.25;0.68;;;10.50;99.90;;;;;;5039894;28;20037;-72
2021/05/18 01:54:27;;;;;;;1.05;0.70;;;10.50;99.90;;;;;;5041536;28;20043;-70
2021/05/18 01:59:40;;;;;;;1.20;0.73;;;10.50;99.90;;;;;;5033954;28;20044;-71
2021/05/18 02:02:07;;;;;;;1.10;0.70;;;10.60;99.90;;;;;;5053429;28;20022;-71
2021/05/18 02:04:42;;;;;;;1.13;0.80;;;10.50;99.90;;;;;;5051628;28;20075;-70
2021/05/18 02:07:15;;;;;;;1.55;0.90;;;10.50;99.90;;;;;;5033795;28;20016;-70
2021/05/18 02:09:42;;;;;;;1.67;0.93;;;10.50;99.90;;;;;;5051556;28;20017;-71
2021/05/18 02:12:08;;;;;;;1.60;0.80;;;10.40;99.90;;;;;;5051509;28;20028;-73
2021/05/18 02:14:35;;;;;;;1.17;0.70;;;10.50;99.90;;;;;;5050784;28;20032;-73
2021/05/18 02:17:56;;;;;;;2.40;0.93;;;10.50;99.90;;;;;;5051365;28;20056;-72
2021/05/18 02:25:06;;;;;;;1.45;1.05;;;10.40;99.90;;;;;;5051112;28;20040;-72
2021/05/18 02:27:32;;;;;;;2.03;0.90;;;10.40;99.90;;;;;;5033156;28;20048;-72
2021/05/18 02:29:59;;;;;;;2.05;1.10;;;10.30;99.90;;;;;;5032810;28;20025;-72
2021/05/18 02:32:26;;;;;;;4.10;1.35;;;10.10;99.90;;;;;;5051019;28;20036;-72
2021/05/18 02:34:52;;;;;;;2.15;1.23;;;10.10;99.90;;;;;;5050223;28;20025;-72
2021/05/18 02:37:17;;;;;;;3.78;1.15;;;10.20;99.90;;;;;;5050862;28;20036;-72
2021/05/18 02:39:43;;;;;;;0.90;0.90;;;10.10;99.90;;;;;;5051241;28;20402;-71
2021/05/18 02:42:09;;;;;;;3.13;1.10;;;10.20;99.90;;;;;;5051080;28;20039;-73
2021/05/18 02:50:24;;;;;;;1.52;0.80;;;10.10;99.90;;;;;;5028429;28;20541;-73
2021/05/18 02:52:49;;;;;;;3.90;1.30;;;10.10;99.90;;;;;;5036376;28;20068;-74
2021/05/18 02:55:22;;;;;;;2.78;0.93;;;10.00;99.90;;;;;;5055051;28;20092;-73
2021/05/18 02:57:49;;;;;;;2.22;0.88;;;10.10;99.90;;;;;;5055108;28;20025;-73
2021/05/18 03:00:18;;;;;;;3.40;0.80;;;10.10;99.90;;;;;;5054744;28;20029;-72
2021/05/18 03:02:44;;;;;;;1.23;0.63;;;10.00;99.90;;;;;;5054494;28;20147;-72
2021/05/18 03:05:10;;;;;;;2.25;1.17;;;10.00;99.90;;;;;;5054901;28;20065;-72
2021/05/18 03:07:36;;;;;;;2.17;0.90;;;9.90;99.90;;;;;;5055828;28;20385;-72
2021/05/18 03:10:05;;;;;;;1.98;1.17;;;10.00;99.90;;;;;;5054806;28;20029;-73
2021/05/18 03:12:31;;;;;;;1.15;0.65;;;10.00;99.90;;;;;;5054930;28;20071;-73
2021/05/18 03:14:57;;;;;;;1.60;0.85;;;10.10;99.90;;;;;;5053512;28;20497;-73
2021/05/18 03:17:23;;;;;;;4.03;0.80;;;10.20;99.90;;;;;;5054447;28;20450;-73
2021/05/18 03:19:48;;;;;;;3.50;1.23;;;10.20;99.90;;;;;;5054832;28;20426;-72
2021/05/18 03:22:15;;;;;;;1.13;0.90;;;9.90;99.90;;;;;;5054734;28;20036;-71
2021/05/18 03:24:42;;;;;;;1.70;1.00;;;9.80;99.90;;;;;;5053891;28;20146;-72
2021/05/18 03:27:10;;;;;;;3.08;0.93;;;9.70;99.90;;;;;;5054929;28;20472;-73
2021/05/18 03:29:36;;;;;;;1.48;1.00;;;9.80;99.90;;;;;;5054800;28;20026;-73
2021/05/18 03:34:46;;;;;;;2.05;0.77;;;9.70;99.90;;;;;;5054205;28;20163;-72
2021/05/18 03:37:29;;;;;;;2.63;0.90;;;9.80;99.90;;;;;;5054906;28;20102;-73
2021/05/18 03:40:01;;;;;;;2.88;1.20;;;9.80;99.90;;;;;;5055722;28;20499;-72
2021/05/18 03:42:36;;;;;;;2.10;1.00;;;9.90;99.90;;;;;;5055067;28;20386;-73
2021/05/18 04:04:26;;;;;;;2.20;0.88;;;10.20;99.90;;;;;;5033276;28;20080;-72
2021/05/18 04:23:25;;;;;;;2.05;0.70;;;10.20;99.90;;;;;;5051145;28;20055;-71
2021/05/18 04:40:18;;;;;;;1.00;0.60;;;10.40;99.90;;;;;;5041814;28;20068;-72
2021/05/18 04:50:44;;;;;;;1.90;0.82;;;10.60;99.90;;;;;;5050939;28;20530;-70
2021/05/18 04:54:29;;;;;;;1.65;0.82;;;10.50;99.90;;;;;;5033027;28;20644;-70
2021/05/18 05:09:22;;;;;;;1.75;0.75;;;10.90;99.90;;;;;;5030858;28;20494;-69
2021/05/18 05:14:32;;;;;;;4.50;1.42;;;11.00;99.90;;;;;;5029478;28;20103;-70
2021/05/18 05:16:58;;;;;;;5.38;0.90;;;11.00;99.90;;;;;;5027982;28;20056;-74
2021/05/18 05:19:28;;;;;;;4.45;1.20;;;11.10;99.90;;;;;;5047787;28;20434;-70
2021/05/18 05:21:55;;;;;;;1.10;0.95;;;11.00;99.90;;;;;;5046291;28;20104;-70
2021/05/18 05:24:21;;;;;;;1.75;0.80;;;10.60;99.90;;;;;;5051642;28;20029;-70
2021/05/18 05:26:48;;;;;;;3.22;1.00;;;10.50;99.90;;;;;;5034431;28;20021;-69
2021/05/18 05:29:14;;;;;;;3.05;1.23;;;10.60;99.90;;;;;;5034423;28;20017;-70
2021/05/18 05:31:40;;;;;;;3.22;1.63;;;10.60;99.90;;;;;;5051662;28;20255;-70
2021/05/18 05:34:06;;;;;;;10.80;1.67;;;10.80;99.90;;;;;;5050747;28;20393;-70
2021/05/18 05:36:32;;;;;;;1.13;0.88;;;10.80;99.90;;;;;;5034228;28;20636;-70
2021/05/18 05:39:02;;;;;;;9.73;1.20;;;10.80;99.90;;;;;;5051534;28;20032;-69
2021/05/18 05:41:29;;;;;;;2.60;1.02;;;10.80;99.90;;;;;;5050699;28;20032;-70
2021/05/18 05:43:54;;;;;;;1.30;0.80;;;10.60;99.90;;;;;;5051596;28;20045;-72
2021/05/18 05:46:20;;;;;;;5.15;1.20;;;10.50;99.90;;;;;;5048198;28;20435;-73
2021/05/18 05:48:52;;;;;;;1.75;0.80;;;10.60;99.90;;;;;;5024391;28;20103;-73
2021/05/18 05:51:19;;;;;;;3.00;0.98;;;10.70;99.90;;;;;;5035465;28;20117;-71
2021/05/18 05:53:45;;;;;;;1.67;1.10;;;10.80;99.90;;;;;;5021210;28;20120;-71
2021/05/18 05:56:11;;;;;;;1.65;1.00;;;10.80;99.90;;;;;;5049984;28;20083;-71
2021/05/18 05:58:37;;;;;;;0.70;0.70;;;10.70;99.90;;;;;;5052605;28;20025;-72
2021/05/18 06:01:03;;;;;;;0.85;0.85;;;10.70;99.90;;;;;;5052404;28;20039;-72
2021/05/18 06:03:28;;;;;;;0.82;0.80;;;10.80;99.90;;;;;;5051241;28;20024;-71
2021/05/18 06:05:54;;;;;;;1.73;0.65;;;10.80;99.90;;;;;;5033967;28;20104;-71
2021/05/18 06:08:19;;;;;;;2.70;0.80;;;10.70;99.90;;;;;;5048924;28;20044;-71
2021/05/18 06:10:48;;;;;;;0.75;0.70;;;10.30;99.90;;;;;;5051531;28;20450;-71
2021/05/18 06:13:33;;;;;;;0.70;0.70;;;10.30;99.90;;;;;;5050714;28;20082;-71
2021/05/18 06:48:22;;;;;;;2.05;0.50;;;11.90;99.90;;;;;;5051301;28;20024;-71
2021/05/18 06:50:49;;;;;;;1.60;0.77;;;12.00;99.90;;;;;;5051399;28;20025;-72
2021/05/18 06:53:15;;;;;;;2.03;0.70;;;12.00;99.90;;;;;;5036913;28;20048;-72
2021/05/18 06:55:40;;;;;;;0.30;0.30;;;12.00;99.90;;;;;;5031291;28;20057;-71
2021/05/18 06:58:16;;;;;;;1.55;0.50;;;11.40;99.90;;;;;;5031385;28;20101;-72
2021/05/18 07:00:42;;;;;;;2.03;0.63;;;11.10;99.90;;;;;;5030904;28;20026;-73
2021/05/18 07:03:15;;;;;;;1.23;0.38;;;11.30;99.90;;;;;;5030388;28;20033;-73
2021/05/18 07:10:46;;;;;;;0.45;0.25;;;11.30;99.90;;;;;;5031227;28;20044;-73
2021/05/18 07:13:12;;;;;;;1.55;0.70;;;11.70;99.90;;;;;;5030774;28;20480;-73
2021/05/18 07:15:39;;;;;;;0.45;0.30;;;11.70;99.90;;;;;;5030710;28;20353;-72
2021/05/18 07:18:05;;;;;;;0.40;0.40;;;11.70;99.90;;;;;;5031021;28;20052;-72
2021/05/18 07:20:32;;;;;;;2.25;0.30;;;11.40;99.90;;;;;;5016518;28;20028;-71
2021/05/18 07:23:01;;;;;;;3.33;0.45;;;11.30;99.90;;;;;;5050569;28;20021;-72
2021/05/18 07:25:27;;;;;;;3.15;0.68;;;11.40;99.90;;;;;;5051107;28;20131;-71
2021/05/18 07:27:53;;;;;;;1.77;0.43;;;11.40;99.90;;;;;;5050870;28;20037;-73
2021/05/18 07:30:19;;;;;;;1.15;0.45;;;11.20;99.90;;;;;;5050289;28;20057;-73
2021/05/18 07:32:45;;;;;;;1.60;0.50;;;11.10;99.90;;;;;;5032227;28;20120;-70
2021/05/18 07:35:11;;;;;;;0.60;0.60;;;11.10;99.90;;;;;;5050552;28;20120;-72
2021/05/18 07:37:39;;;;;;;0.57;0.50;;;10.90;99.90;;;;;;5034450;28;20025;-73
2021/05/18 07:40:07;;;;;;;1.58;0.77;;;10.70;99.90;;;;;;5054178;28;20037;-70
2021/05/18 07:42:33;;;;;;;1.85;0.40;;;11.00;99.90;;;;;;5054382;28;20021;-71
2021/05/18 07:45:00;;;;;;;0.50;0.50;;;11.00;99.90;;;;;;5034492;28;20029;-71
2021/05/18 07:47:30;;;;;;;0.60;0.52;;;10.80;99.90;;;;;;5034124;28;20037;-71
2021/05/18 07:50:04;;;;;;;1.30;0.57;;;11.00;99.90;;;;;;5001763;28;20095;-72
2021/05/18 08:06:12;;;;;;;2.25;0.60;;;11.10;99.90;;;;;;5053116;28;20063;-71
2021/05/18 08:08:40;;;;;;;1.33;0.95;;;11.20;99.90;;;;;;5053812;28;20032;-71
2021/05/18 08:11:06;;;;;;;3.00;0.88;;;11.30;99.90;;;;;;5054039;28;20444;-71
2021/05/18 08:13:31;;;;;;;1.02;0.50;;;11.80;99.90;;;;;;5053101;28;20024;-70
2021/05/18 10:38:33;;;;;;;1.83;0.70;;;16.70;99.90;;;;;;5043676;28;20116;-74
2021/05/18 10:41:27;;;;;;;35.75;20.70;;;16.50;99.90;;;;;;5044856;28;20501;-76
2021/05/18 10:44:01;;;;;;;2.08;0.40;;;16.60;99.90;;;;;;5020576;28;20555;-74
2021/05/18 10:46:46;;;;;;;3.22;0.63;;;15.60;99.90;;;;;;5023185;28;20032;-75
2021/05/18 10:49:13;;;;;;;1.55;0.47;;;15.00;99.90;;;;;;5041622;28;20731;-74
2021/05/18 10:51:48;;;;;;;23.88;17.55;;;14.60;99.90;;;;;;5039630;28;20009;-75
2021/05/18 10:54:28;;;;;;;1.15;0.43;;;15.10;99.90;;;;;;5036257;28;20029;-75
2021/05/18 10:57:01;;;;;;;1.70;1.20;;;15.00;99.90;;;;;;5039894;28;20021;-71
2021/05/18 10:59:48;;;;;;;0.50;0.40;;;15.00;99.90;;;;;;5031080;28;20067;-72
2021/05/18 11:02:28;;;;;;;0.90;0.40;;;15.30;99.90;;;;;;5031557;28;20399;-71
2021/05/18 11:04:59;;;;;;;1.42;0.43;;;15.70;99.90;;;;;;5030729;28;20125;-71
2021/05/18 11:07:32;;;;;;;2.67;0.80;;;15.50;99.90;;;;;;5013276;28;20403;-71
2021/05/18 11:09:58;;;;;;;1.42;0.40;;;16.00;99.90;;;;;;5031721;28;20064;-71
2021/05/18 11:12:25;;;;;;;1.48;0.70;;;16.10;99.90;;;;;;5032274;28;20083;-71
2021/05/18 11:15:11;;;;;;;4.15;0.73;;;16.10;99.90;;;;;;5034816;28;20029;-71
2021/05/18 11:17:41;;;;;;;2.40;0.60;;;15.70;99.90;;;;;;5046582;28;20082;-73
2021/05/18 11:20:21;;;;;;;1.88;0.40;;;15.50;99.90;;;;;;5031235;28;20032;-73
2021/05/18 11:25:37;;;;;;;1.98;0.60;;;16.70;99.90;;;;;;5037310;28;20033;-72
2021/05/18 11:28:15;;;;;;;1.60;0.50;;;17.40;99.90;;;;;;5036456;28;20052;-73
2021/05/18 11:30:43;;;;;;;2.45;0.60;;;17.20;99.90;;;;;;5043511;28;20013;-75
2021/05/18 11:33:09;;;;;;;3.35;0.40;;;18.60;99.90;;;;;;5040098;28;20045;-74
2021/05/18 11:35:35;;;;;;;2.13;0.30;;;19.20;99.90;;;;;;5049132;28;20037;-75
2021/05/18 11:38:16;;;;;;;0.30;0.20;;;18.50;99.90;;;;;;5057499;28;20036;-75
2021/05/18 11:40:44;;;;;;;3.03;0.20;;;16.90;98.80;;;;;;5054458;28;20056;-74
2021/05/18 11:43:24;;;;;;;2.20;0.40;;;16.20;99.90;;;;;;5055520;28;20048;-74
2021/05/18 11:46:02;;;;;;;0.63;0.28;;;15.60;99.90;;;;;;5048911;28;20021;-75
2021/05/18 11:48:28;;;;;;;3.47;0.40;;;15.10;99.90;;;;;;5054090;28;20029;-74
2021/05/18 11:51:11;;;;;;;3.65;0.40;;;15.50;99.90;;;;;;5058081;28;20021;-71
2021/05/18 11:53:39;;;;;;;0.77;0.40;;;16.30;99.90;;;;;;5051178;28;20127;-75
2021/05/18 11:56:16;;;;;;;0.40;0.20;;;17.20;99.20;;;;;;5014095;28;20038;-74
2021/05/18 11:58:42;;;;;;;3.53;0.32;;;17.60;99.90;;;;;;5031956;28;20045;-74
2021/05/18 12:01:08;;;;;;;0.30;0.30;;;19.10;98.10;;;;;;5034033;28;20025;-76
2021/05/18 12:03:35;;;;;;;1.90;0.40;;;19.40;95.20;;;;;;5021441;28;20040;-75
2021/05/18 12:06:03;;;;;;;2.30;0.35;;;19.70;93.80;;;;;;5024633;28;20034;-75
2021/05/18 12:08:36;;;;;;;1.67;0.50;;;18.10;96.30;;;;;;5037454;28;20029;-74
2021/05/18 12:11:18;;;;;;;0.65;0.22;;;17.40;98.80;;;;;;5036497;28;20030;-72
2021/05/18 12:13:46;;;;;;;1.23;0.77;;;17.20;98.90;;;;;;5044573;28;20033;-72
2021/05/18 12:16:13;;;;;;;1.50;0.40;;;16.90;99.90;;;;;;5046043;28;20025;-76
2021/05/18 12:18:40;;;;;;;3.08;0.50;;;16.10;99.90;;;;;;5039175;28;20029;-75
2021/05/18 12:21:07;;;;;;;1.80;0.60;;;15.90;99.90;;;;;;5044868;28;20025;-73
2021/05/18 12:23:34;;;;;;;3.13;0.40;;;15.60;99.90;;;;;;5039108;28;20028;-74
2021/05/18 12:26:19;;;;;;;1.35;0.30;;;15.10;99.90;;;;;;5022964;28;20869;-76
2021/05/18 12:28:56;;;;;;;2.80;0.40;;;14.10;99.90;;;;;;5041870;28;20121;-75
2021/05/18 12:31:39;;;;;;;2.22;0.30;;;14.20;99.90;;;;;;5038740;28;20040;-74
2021/05/18 12:34:06;;;;;;;7.25;0.82;;;14.90;99.90;;;;;;5041339;28;20367;-74
2021/05/18 12:36:46;;;;;;;1.52;0.70;;;16.40;99.90;;;;;;5039887;28;20017;-74
2021/05/18 12:39:14;;;;;;;0.30;0.30;;;17.90;99.90;;;;;;5041719;28;20025;-73
2021/05/18 12:42:00;;;;;;;0.30;0.20;;;18.20;99.90;;;;;;5038893;28;20021;-74
2021/05/18 12:44:29;;;;;;;0.50;0.25;;;16.70;99.90;;;;;;5038918;28;20468;-73
2021/05/18 12:47:06;;;;;;;3.25;0.30;;;17.00;99.90;;;;;;5023597;28;20028;-74
2021/05/18 12:49:33;;;;;;;1.08;0.57;;;16.50;99.90;;;;;;5037390;28;20021;-75
2021/05/18 12:52:19;;;;;;;3.10;1.40;;;16.50;99.90;;;;;;5038347;28;20017;-74
2021/05/18 12:54:47;;;;;;;7.55;0.50;;;17.40;99.90;;;;;;5038709;28;20046;-75
2021/05/18 12:57:16;;;;;;;0.17;0.17;;;17.40;99.90;;;;;;5040052;28;20032;-74
2021/05/18 13:00:03;;;;;;;1.23;0.35;;;18.00;99.90;;;;;;5038572;28;20502;-75
2021/05/18 13:02:31;;;;;;;0.55;0.30;;;18.80;99.90;;;;;;5041080;28;20326;-74
2021/05/18 13:05:07;;;;;;;0.17;0.10;;;19.60;98.00;;;;;;5021635;28;20037;-75
2021/05/18 13:07:34;;;;;;;0.55;0.10;;;19.90;96.20;;;;;;5040341;28;20014;-73
2021/05/18 13:10:10;;;;;;;2.50;0.40;;;19.70;94.40;;;;;;5038471;28;20011;-73
2021/05/18 13:12:36;;;;;;;0.10;0.10;;;18.30;96.50;;;;;;5039500;28;20048;-73
2021/05/18 13:15:06;;;;;;;2.08;0.13;;;17.60;95.60;;;;;;5040026;28;20025;-75
2021/05/18 13:17:32;;;;;;;1.63;0.20;;;16.60;97.00;;;;;;5039451;28;20033;-74
2021/05/18 13:20:09;;;;;;;3.85;0.20;;;17.00;98.90;;;;;;5035911;28;20056;-71
2021/05/18 13:22:37;;;;;;;2.85;0.50;;;15.70;98.50;;;;;;5030942;28;20172;-75
2021/05/18 13:27:56;;;;;;;3.60;0.52;;;16.60;99.90;;;;;;5031652;28;20025;-76
2021/05/18 13:30:25;;;;;;;15.30;0.63;;;17.90;98.70;;;;;;5031419;28;20022;-75
2021/05/18 13:32:52;;;;;;;2.03;0.20;;;18.70;98.80;;;;;;5030697;28;20021;-75
2021/05/18 13:35:19;;;;;;;1.33;0.30;;;19.10;97.30;;;;;;5012148;28;20118;-74
2021/05/18 13:37:45;;;;;;;0.57;0.13;;;19.30;94.10;;;;;;5030972;28;20653;-72
2021/05/18 13:40:13;;;;;;;0.30;0.10;;;18.80;92.90;;;;;;5045236;28;20124;-71
2021/05/18 13:42:40;;;;;;;2.40;0.25;;;18.80;93.20;;;;;;5051752;28;20025;-72
2021/05/18 13:45:07;;;;;;;0.40;0.20;;;18.50;95.70;;;;;;5051900;28;20033;-72
2021/05/18 13:47:33;;;;;;;0.13;0.10;;;19.00;94.70;;;;;;5033764;28;20119;-73
2021/05/18 13:49:58;;;;;;;2.92;0.20;;;19.20;94.60;;;;;;5051886;28;20025;-73
2021/05/18 13:52:24;;;;;;;2.40;0.35;;;18.60;94.40;;;;;;5052220;28;20021;-74
2021/05/18 13:54:51;;;;;;;0.80;0.30;;;17.60;98.40;;;;;;5051806;28;20035;-71
2021/05/18 13:57:17;;;;;;;0.50;0.50;;;17.60;98.10;;;;;;5051601;28;20029;-72
2021/05/18 13:59:42;;;;;;;1.98;0.20;;;18.00;99.00;;;;;;5051486;28;20025;-72
2021/05/18 14:02:08;;;;;;;0.70;0.10;;;19.10;97.30;;;;;;5051998;28;20391;-72
2021/05/18 14:04:34;;;;;;;0.63;0.20;;;18.20;96.00;;;;;;5051208;28;20121;-72
2021/05/18 14:10:06;;;;;;;0.63;0.22;;;17.70;97.50;;;;;;5031966;28;20036;-70
2021/05/18 14:12:32;;;;;;;1.00;0.30;;;17.40;98.10;;;;;;5031509;28;20100;-73
2021/05/18 14:14:58;;;;;;;0.28;0.10;;;17.30;96.70;;;;;;5031199;28;20063;-73
2021/05/18 14:17:23;;;;;;;0.95;0.10;;;18.00;96.10;;;;;;5031182;28;20036;-73
2021/05/18 14:19:49;;;;;;;0.40;0.20;;;19.60;95.40;;;;;;5013084;28;20025;-71
2021/05/18 14:22:15;;;;;;;0.88;0.20;;;20.90;92.40;;;;;;5031607;28;20033;-74
2021/05/18 14:24:51;;;;;;;0.88;0.20;;;21.70;92.70;;;;;;5028386;28;20021;-77
2021/05/18 14:27:20;;;;;;;0.50;0.35;;;22.90;89.30;;;;;;5031307;28;20029;-77
2021/05/18 14:29:46;;;;;;;0.70;0.32;;;22.40;91.00;;;;;;5031608;28;20606;-76
2021/05/18 14:32:14;;;;;;;0.30;0.10;;;22.90;84.20;;;;;;5032115;28;20411;-77
2021/05/18 14:34:39;;;;;;;0.95;0.35;;;20.30;90.00;;;;;;5018025;28;20121;-77
2021/05/18 14:37:05;;;;;;;0.82;0.30;;;18.60;93.50;;;;;;5033554;28;20501;-77
2021/05/18 14:39:37;;;;;;;1.58;0.50;;;18.80;94.20;;;;;;5052190;28;20029;-73
2021/05/18 14:44:47;;;;;;;0.63;0.10;;;18.40;95.70;;;;;;5033013;28;20102;-73
2021/05/18 14:47:22;;;;;;;0.57;0.20;;;18.60;94.50;;;;;;5036367;28;20022;-72
2021/05/18 14:55:20;;;;;;;0.35;0.20;;;17.30;94.80;;;;;;5046538;28;20416;-71
2021/05/18 14:57:47;;;;;;;0.32;0.10;;;17.60;93.80;;;;;;5020951;28;20427;-74
2021/05/18 15:00:14;;;;;;;1.55;0.30;;;17.80;93.30;;;;;;5020887;28;20044;-70
2021/05/18 15:02:40;;;;;;;1.35;0.20;;;17.20;93.00;;;;;;5037163;28;20029;-73
2021/05/18 15:05:06;;;;;;;1.30;0.40;;;16.90;93.30;;;;;;5038866;28;20034;-71
2021/05/18 15:07:32;;;;;;;3.25;0.30;;;16.70;94.30;;;;;;5038693;28;20025;-72
2021/05/18 15:09:58;;;;;;;0.50;0.40;;;17.20;95.60;;;;;;5038379;28;20140;-73
2021/05/18 15:12:24;;;;;;;1.10;0.47;;;17.60;94.50;;;;;;5038201;28;20033;-72
2021/05/18 15:14:50;;;;;;;0.43;0.38;;;17.80;93.40;;;;;;5044345;28;20028;-73
2021/05/18 15:17:16;;;;;;;1.13;0.30;;;17.30;94.00;;;;;;5078607;28;20033;-73
2021/05/18 15:19:44;;;;;;;0.73;0.30;;;17.30;95.20;;;;;;5072869;28;20024;-73
2021/05/18 15:22:10;;;;;;;0.90;0.20;;;17.40;94.40;;;;;;5058893;28;20036;-74
2021/05/18 15:24:36;;;;;;;0.75;0.50;;;17.50;94.40;;;;;;5057121;28;20025;-75
2021/05/18 15:27:03;;;;;;;0.77;0.30;;;18.40;94.80;;;;;;5057345;28;20025;-73
2021/05/18 15:29:29;;;;;;;0.35;0.25;;;17.00;92.70;;;;;;5057692;28;20017;-73
2021/05/18 15:31:55;;;;;;;0.70;0.40;;;15.60;95.60;;;;;;5045242;28;20076;-75
2021/05/18 15:34:21;;;;;;;0.98;0.40;;;14.90;97.60;;;;;;5042649;28;20029;-77
2021/05/18 15:36:46;;;;;;;0.95;0.63;;;15.30;97.40;;;;;;5048106;28;20470;-75
2021/05/18 15:39:12;;;;;;;1.52;0.70;;;15.00;98.00;;;;;;5033167;28;20021;-75
2021/05/18 15:41:38;;;;;;;0.75;0.30;;;15.10;98.20;;;;;;5048814;28;20030;-76
2021/05/18 15:44:04;;;;;;;0.55;0.30;;;15.40;98.40;;;;;;5048867;28;20025;-77
2021/05/18 15:46:31;;;;;;;0.93;0.38;;;15.60;99.00;;;;;;5035146;28;20090;-76
2021/05/18 15:48:56;;;;;;;0.95;0.40;;;15.70;98.80;;;;;;5052315;28;20013;-76
2021/05/18 15:51:22;;;;;;;0.35;0.30;;;15.40;98.70;;;;;;5037685;28;20021;-74
2021/05/18 15:53:48;;;;;;;2.92;0.80;;;14.90;99.60;;;;;;5049030;28;20024;-75
2021/05/18 15:56:13;;;;;;;0.73;0.40;;;14.90;99.90;;;;;;5057798;28;20738;-75
2021/05/18 15:58:39;;;;;;;2.72;0.32;;;15.00;99.90;;;;;;5044335;28;20096;-74
2021/05/18 16:01:05;;;;;;;3.30;0.28;;;14.40;99.90;;;;;;5042837;28;20033;-76
2021/05/18 16:03:30;;;;;;;1.02;0.20;;;14.30;99.90;;;;;;5041468;28;20476;-74
2021/05/18 16:06:00;;;;;;;0.20;0.20;;;13.90;99.90;;;;;;5026431;28;20024;-76
2021/05/18 16:10:56;;;;;;;2.10;0.60;;;14.00;99.90;;;;;;5042009;28;20029;-73
2021/05/18 16:13:22;;;;;;;2.53;0.30;;;14.10;99.90;;;;;;5033356;28;20026;-72
2021/05/18 16:15:48;;;;;;;1.70;0.40;;;13.90;99.90;;;;;;5033176;28;20033;-72
2021/05/18 16:18:14;;;;;;;0.40;0.20;;;13.80;99.90;;;;;;5033514;28;20043;-73
2021/05/18 16:20:41;;;;;;;0.25;0.25;;;14.00;99.90;;;;;;5047632;28;20029;-72
2021/05/18 16:23:06;;;;;;;0.40;0.20;;;14.10;99.90;;;;;;5053331;28;20039;-72
2021/05/18 16:25:33;;;;;;;0.60;0.25;;;14.10;99.90;;;;;;5053441;28;20565;-72
2021/05/18 16:27:59;;;;;;;1.00;0.30;;;14.20;99.90;;;;;;5053134;28;20463;-71
2021/05/18 16:30:25;;;;;;;1.77;0.32;;;14.30;99.90;;;;;;5053478;28;20075;-71
2021/05/18 16:32:50;;;;;;;0.80;0.57;;;14.20;99.90;;;;;;5033043;28;20024;-74
2021/05/18 16:35:16;;;;;;;1.70;0.30;;;14.00;99.90;;;;;;5033593;28;20450;-73
2021/05/18 16:37:43;;;;;;;0.32;0.20;;;14.10;99.90;;;;;;5033505;28;20039;-72
2021/05/18 16:40:09;;;;;;;0.57;0.20;;;13.90;99.90;;;;;;5033450;28;20022;-71
2021/05/18 16:42:37;;;;;;;3.38;0.35;;;13.80;99.90;;;;;;5033422;28;20029;-73
2021/05/18 16:45:04;;;;;;;0.20;0.20;;;14.00;99.90;;;;;;5015563;28;20029;-73
2021/05/18 16:47:30;;;;;;;0.50;0.30;;;14.00;99.90;;;;;;5033181;28;20112;-71
2021/05/18 16:49:56;;;;;;;1.00;0.20;;;14.20;99.90;;;;;;5033080;28;20037;-75
2021/05/18 16:52:21;;;;;;;0.95;0.40;;;14.00;99.90;;;;;;5033247;28;20391;-74
2021/05/18 16:54:47;;;;;;;0.45;0.40;;;14.10;99.90;;;;;;5032379;28;20507;-73
2021/05/18 16:57:13;;;;;;;1.70;0.30;;;14.30;99.90;;;;;;5033603;28;20040;-75
2021/05/18 16:59:39;;;;;;;4.82;0.45;;;14.20;99.90;;;;;;5033996;28;20034;-76
2021/05/18 17:02:04;;;;;;;0.77;0.20;;;14.60;99.90;;;;;;5033598;28;20039;-76
2021/05/18 17:04:30;;;;;;;2.55;0.45;;;14.90;99.90;;;;;;5032977;28;20022;-76
2021/05/18 17:06:57;;;;;;;3.45;0.50;;;15.00;99.90;;;;;;5032258;28;20030;-76
2021/05/18 17:09:23;;;;;;;1.15;0.30;;;15.40;99.90;;;;;;5030950;28;20464;-76
2021/05/18 17:11:48;;;;;;;4.90;0.40;;;15.50;99.90;;;;;;5031325;28;20056;-75
2021/05/18 17:14:14;;;;;;;0.40;0.35;;;15.40;99.90;;;;;;5031434;28;20175;-76
2021/05/18 17:16:40;;;;;;;2.22;0.43;;;14.80;99.90;;;;;;5032001;28;20029;-75
2021/05/18 17:19:07;;;;;;;4.10;1.02;;;14.70;99.90;;;;;;5033195;28;20064;-77
2021/05/18 17:21:33;;;;;;;2.92;1.35;;;14.70;99.90;;;;;;5054738;28;20049;-70
2021/05/18 17:23:59;;;;;;;3.88;1.75;;;14.70;99.90;;;;;;5050639;28;20447;-69
2021/05/18 17:26:25;;;;;;;5.40;1.20;;;14.50;99.90;;;;;;5050296;28;20052;-75
2021/05/18 17:28:52;;;;;;;3.53;0.90;;;14.50;99.90;;;;;;5024493;28;20108;-77
2021/05/18 17:31:17;;;;;;;1.10;0.47;;;14.10;99.90;;;;;;5045900;28;20076;-77
2021/05/18 17:33:44;;;;;;;2.22;0.73;;;13.80;99.90;;;;;;5049484;28;20565;-77
2021/05/18 17:36:10;;;;;;;2.28;0.38;;;13.90;99.90;;;;;;5051081;28;20053;-78
2021/05/18 17:38:35;;;;;;;1.55;0.73;;;13.80;99.90;;;;;;5040755;28;20029;-79
2021/05/18 17:41:02;;;;;;;0.73;0.40;;;13.50;99.90;;;;;;5023756;28;20487;-75
2021/05/18 17:43:29;;;;;;;0.43;0.40;;;13.90;99.90;;;;;;5039028;28;20644;-75
2021/05/18 17:45:56;;;;;;;0.75;0.70;;;13.20;99.90;;;;;;5040174;28;20056;-74
2021/05/18 17:48:22;;;;;;;0.50;0.50;;;12.90;99.90;;;;;;5039113;28;20013;-76
2021/05/18 17:50:49;;;;;;;2.67;0.80;;;12.70;99.90;;;;;;5039679;28;20025;-76
2021/05/18 17:53:15;;;;;;;0.70;0.45;;;12.50;99.90;;;;;;5038130;28;20160;-78
2021/05/18 17:55:40;;;;;;;0.77;0.55;;;12.40;99.90;;;;;;5043436;28;20021;-77
2021/05/18 17:58:06;;;;;;;2.65;0.77;;;12.30;99.90;;;;;;5039067;28;20032;-76
2021/05/18 18:00:32;;;;;;;1.13;0.63;;;12.40;99.90;;;;;;5023567;28;20021;-75
2021/05/18 18:02:58;;;;;;;3.03;0.60;;;12.30;99.90;;;;;;5043537;28;20024;-75
2021/05/18 18:05:23;;;;;;;1.52;0.45;;;12.40;99.90;;;;;;5039400;28;20776;-77
2021/05/18 18:07:49;;;;;;;2.05;0.88;;;12.50;99.90;;;;;;5040696;28;20018;-77
2021/05/18 18:10:15;;;;;;;0.75;0.50;;;12.50;99.90;;;;;;5039294;28;20021;-78
2021/05/18 18:12:41;;;;;;;3.80;0.88;;;12.60;99.90;;;;;;5035846;28;20049;-76